Time;durP1;ratioP1;P1;durP2;ratioP2;P2;SDS_P1;SDS_P2;PMS_P1;PMS_P2;Temp;Humidity;BMP_temperature;BMP_pressure;BME280_temperature;BME280_humidity;BME280_pressure;Samples;Min_cycle;Max_cycle;Signal;HPM_P1;HPM_P2
2022/01/17 05:33:08;;;;;;;;;;;;;;;5.61;90.18;99280.84;5199180;23;19979;-68
2022/01/17 05:35:36;;;;;;;;;;;;;;;5.65;89.51;99287.38;4865004;29;19957;-68
2022/01/17 05:38:03;;;;;;;;;;;;;;;5.66;89.29;99275.91;4864835;29;19949;-68
2022/01/17 05:40:31;;;;;;;;;;;;;;;5.66;89.87;99275.91;4864893;29;19953;-68
2022/01/17 05:42:58;;;;;;;;;;;;;;;5.71;89.59;99275.69;4848560;29;20235;-68
2022/01/17 05:45:25;;;;;;;;;;;;;;;5.71;88.75;99284.03;4864703;29;19983;-68
2022/01/17 05:47:53;;;;;;;;;;;;;;;5.76;88.23;99274.66;4863920;29;19974;-68
2022/01/17 05:50:20;;;;;;;;;;;;;;;5.76;86.21;99285.75;4848581;29;19951;-68
2022/01/17 05:52:48;;;;;;;;;;;;;;;5.79;87.23;99297.00;4864777;29;19953;-68
2022/01/17 05:55:16;;;;;;;;;;;;;;;5.73;87.37;99301.13;4864657;29;19960;-68
2022/01/17 05:57:43;;;;;;;;;;;;;;;5.70;86.76;99310.13;4864729;29;19960;-69
2022/01/17 06:00:13;;;;;;;;;;;;;;;5.70;84.84;99306.53;4865023;29;19953;-69
2022/01/17 06:02:40;;;;;;;;;;;;;;;5.70;86.20;99304.59;4864389;29;19952;-68
2022/01/17 06:05:07;;;;;;;;;;;;;;;5.65;85.58;99313.13;4864333;29;19950;-68
2022/01/17 06:07:35;;;;;;;;;;;;;;;5.63;84.48;99309.06;4863569;29;20270;-68
2022/01/17 06:10:02;;;;;;;;;;;;;;;5.56;86.00;99301.31;4864475;29;19949;-68
2022/01/17 06:12:29;;;;;;;;;;;;;;;5.54;86.44;99295.28;4864739;29;19955;-68
2022/01/17 06:14:58;;;;;;;;;;;;;;;5.49;86.73;99289.13;4864011;29;19963;-68
2022/01/17 06:17:25;;;;;;;;;;;;;;;5.50;85.91;99293.53;4862518;29;19955;-68
2022/01/17 06:19:52;;;;;;;;;;;;;;;5.51;87.02;99286.81;4864233;29;20209;-68
2022/01/17 06:22:20;;;;;;;;;;;;;;;5.52;88.44;99277.38;4838647;29;19955;-69
2022/01/17 06:24:47;;;;;;;;;;;;;;;5.53;89.91;99279.78;4853976;29;19960;-69
2022/01/17 06:27:15;;;;;;;;;;;;;;;5.57;86.66;99282.69;4861651;29;19981;-69
2022/01/17 06:29:42;;;;;;;;;;;;;;;5.65;83.92;99288.16;4864160;29;19965;-68
2022/01/17 06:32:09;;;;;;;;;;;;;;;5.72;81.45;99295.94;4866677;29;19975;-68
2022/01/17 06:34:51;;;;;;;;;;;;;;;5.78;81.86;99287.03;4868503;29;19953;-68
2022/01/17 06:37:18;;;;;;;;;;;;;;;5.81;84.52;99286.38;4861783;29;19957;-68
2022/01/17 06:39:46;;;;;;;;;;;;;;;5.75;83.28;99284.94;4869538;29;19956;-68
2022/01/17 06:42:14;;;;;;;;;;;;;;;5.74;82.93;99282.53;4864576;29;20338;-68
2022/01/17 06:44:41;;;;;;;;;;;;;;;5.69;84.25;99297.44;4859753;29;20344;-68
2022/01/17 06:47:08;;;;;;;;;;;;;;;5.59;84.13;99300.63;4850630;29;19956;-68
2022/01/17 06:49:36;;;;;;;;;;;;;;;5.57;81.87;99316.81;4861832;29;20369;-68
2022/01/17 06:52:03;;;;;;;;;;;;;;;5.52;85.95;99318.97;4863492;29;19959;-68
2022/01/17 06:54:30;;;;;;;;;;;;;;;5.48;85.14;99310.50;4863202;29;20017;-68
2022/01/17 06:56:58;;;;;;;;;;;;;;;5.43;85.64;99315.47;4863058;29;19952;-68
2022/01/17 06:59:25;;;;;;;;;;;;;;;5.45;84.99;99324.25;4866916;29;19951;-68
2022/01/17 07:01:53;;;;;;;;;;;;;;;5.51;82.65;99325.66;4862045;29;19954;-68
2022/01/17 07:04:20;;;;;;;;;;;;;;;5.56;84.42;99331.81;4855624;29;19950;-68
2022/01/17 07:06:47;;;;;;;;;;;;;;;5.66;82.91;99333.34;4868144;29;20335;-68
2022/01/17 07:09:16;;;;;;;;;;;;;;;5.61;83.85;99336.34;4869223;29;19971;-68
2022/01/17 07:11:44;;;;;;;;;;;;;;;5.65;83.57;99338.09;4870817;29;19956;-68
2022/01/17 07:14:12;;;;;;;;;;;;;;;5.69;82.42;99330.72;4863779;29;19960;-68
2022/01/17 07:16:40;;;;;;;;;;;;;;;5.79;78.78;99329.50;4866553;29;19959;-68
2022/01/17 07:19:07;;;;;;;;;;;;;;;5.95;77.52;99331.31;4867293;29;19963;-68
2022/01/17 07:21:35;;;;;;;;;;;;;;;6.15;76.88;99332.41;4867310;29;19965;-68
2022/01/17 07:24:03;;;;;;;;;;;;;;;6.63;74.25;99331.66;4866698;29;19949;-68
2022/01/17 07:26:31;;;;;;;;;;;;;;;7.15;71.41;99334.53;4865592;29;20377;-68
2022/01/17 07:29:00;;;;;;;;;;;;;;;8.12;68.42;99328.63;4866684;29;19978;-68
2022/01/17 07:31:27;;;;;;;;;;;;;;;9.71;62.56;99331.31;4848512;29;19951;-68
2022/01/17 07:33:56;;;;;;;;;;;;;;;12.02;54.88;99342.41;4860669;29;19972;-68
2022/01/17 07:36:27;;;;;;;;;;;;;;;14.15;46.73;99341.72;4865573;29;19949;-68
2022/01/17 07:38:55;;;;;;;;;;;;;;;16.30;40.18;99338.00;4847995;29;20368;-68
2022/01/17 07:41:22;;;;;;;;;;;;;;;17.93;34.71;99348.78;4848222;29;20370;-69
2022/01/17 07:43:58;;;;;;;;;;;;;;;19.89;29.92;99372.56;4848300;29;19954;-69
2022/01/17 07:46:33;;;;;;;;;;;;;;;21.53;27.17;99383.56;4855419;29;19946;-69
2022/01/17 07:49:10;;;;;;;;;;;;;;;22.09;23.83;99395.50;4865965;29;19982;-69
2022/01/17 07:51:39;;;;;;;;;;;;;;;23.04;21.60;99426.13;4862907;29;19947;-70
2022/01/17 07:54:10;;;;;;;;;;;;;;;24.83;21.19;99441.22;4852695;29;19962;-69
2022/01/17 07:56:38;;;;;;;;;;;;;;;26.17;20.14;99411.97;4857342;29;19964;-69
2022/01/17 07:59:07;;;;;;;;;;;;;;;26.81;19.05;99402.09;4859455;29;20350;-70
2022/01/17 08:01:34;;;;;;;;;;;;;;;27.69;18.65;99392.03;4864097;29;19951;-69
2022/01/17 08:04:02;;;;;;;;;;;;;;;28.71;18.04;99402.34;4859843;29;19952;-70
2022/01/17 08:06:30;;;;;;;;;;;;;;;29.26;17.18;99400.47;4858359;29;19960;-70
2022/01/17 08:08:58;;;;;;;;;;;;;;;30.33;16.44;99402.31;4859061;29;19971;-70
2022/01/17 08:11:25;;;;;;;;;;;;;;;30.93;16.67;99407.25;4857681;29;19962;-70
2022/01/17 08:13:53;;;;;;;;;;;;;;;31.36;16.18;99418.91;4858468;29;20441;-70
2022/01/17 08:16:20;;;;;;;;;;;;;;;31.88;15.97;99416.69;4851048;29;21854;-70
2022/01/17 08:18:48;;;;;;;;;;;;;;;32.42;15.23;99403.81;4856710;29;19946;-70
2022/01/17 08:21:15;;;;;;;;;;;;;;;32.11;14.23;99406.84;4861815;29;19960;-70
2022/01/17 08:23:42;;;;;;;;;;;;;;;31.41;14.99;99404.50;4853242;29;19953;-70
2022/01/17 08:26:10;;;;;;;;;;;;;;;32.57;14.11;99409.44;4854191;29;19959;-68
2022/01/17 08:28:37;;;;;;;;;;;;;;;33.38;13.44;99418.03;4856619;29;19960;-68
2022/01/17 08:31:05;;;;;;;;;;;;;;;31.60;13.90;99405.72;4863972;29;19958;-68
2022/01/17 08:33:44;;;;;;;;;;;;;;;31.93;13.70;99413.03;4856861;29;20651;-68
2022/01/17 08:36:12;;;;;;;;;;;;;;;31.50;14.28;99423.75;4856685;29;19951;-68
2022/01/17 08:38:46;;;;;;;;;;;;;;;29.75;15.80;99420.63;4855505;29;19948;-68
2022/01/17 08:41:16;;;;;;;;;;;;;;;28.57;16.26;99436.31;4856997;29;20431;-68
2022/01/17 08:43:43;;;;;;;;;;;;;;;27.32;17.23;99425.88;4854024;29;19964;-68
2022/01/17 08:46:11;;;;;;;;;;;;;;;26.31;18.69;99420.75;4854466;29;19980;-67
2022/01/17 08:48:39;;;;;;;;;;;;;;;24.72;20.48;99423.63;4857384;29;20228;-69
2022/01/17 08:51:07;;;;;;;;;;;;;;;23.01;20.40;99409.13;4850443;29;19948;-69
2022/01/17 08:53:35;;;;;;;;;;;;;;;21.50;21.89;99395.81;4850680;29;19960;-69
2022/01/17 08:56:03;;;;;;;;;;;;;;;20.51;23.21;99397.31;4852407;29;19947;-69
2022/01/17 08:58:30;;;;;;;;;;;;;;;19.33;26.75;99399.06;4861774;29;19965;-69
2022/01/17 09:00:58;;;;;;;;;;;;;;;18.19;27.64;99390.56;4856458;29;19955;-69
2022/01/17 09:03:25;;;;;;;;;;;;;;;17.53;27.12;99388.00;4850574;29;20249;-69
2022/01/17 09:05:53;;;;;;;;;;;;;;;16.67;31.11;99374.94;4857016;29;19950;-69
2022/01/17 09:08:21;;;;;;;;;;;;;;;16.31;32.44;99357.31;4855061;29;20350;-69
2022/01/17 09:10:51;;;;;;;;;;;;;;;15.92;33.78;99353.06;4856955;29;20356;-69
2022/01/17 09:13:19;;;;;;;;;;;;;;;15.37;31.38;99349.94;4858309;29;19954;-68
2022/01/17 09:15:46;;;;;;;;;;;;;;;15.40;31.18;99352.75;4858380;29;19963;-69
2022/01/17 09:18:14;;;;;;;;;;;;;;;15.06;32.03;99369.25;4856206;29;20241;-69
2022/01/17 09:20:41;;;;;;;;;;;;;;;14.80;32.48;99378.09;4856931;29;19950;-68
2022/01/17 09:23:09;;;;;;;;;;;;;;;14.61;32.81;99395.34;4851840;29;19952;-68
2022/01/17 09:25:36;;;;;;;;;;;;;;;14.38;33.44;99418.19;4857675;29;20251;-68
2022/01/17 09:28:03;;;;;;;;;;;;;;;13.94;34.52;99430.81;4857643;29;20030;-68
2022/01/17 09:30:31;;;;;;;;;;;;;;;13.79;35.35;99452.41;4857054;29;19999;-68
2022/01/17 09:32:58;;;;;;;;;;;;;;;13.61;36.91;99460.72;4857973;29;19976;-68
2022/01/17 09:35:25;;;;;;;;;;;;;;;13.48;37.03;99456.59;4857552;29;20363;-68
2022/01/17 09:37:53;;;;;;;;;;;;;;;13.44;37.60;99457.75;4855205;29;19949;-68
2022/01/17 09:40:20;;;;;;;;;;;;;;;13.38;38.14;99445.25;4852215;29;19964;-68
2022/01/17 09:42:50;;;;;;;;;;;;;;;13.36;38.68;99411.13;4856358;29;19961;-69
2022/01/17 09:45:18;;;;;;;;;;;;;;;13.34;38.48;99408.72;4857007;29;19958;-68
2022/01/17 09:47:46;;;;;;;;;;;;;;;13.31;39.27;99417.09;4853480;29;19955;-68
2022/01/17 09:50:18;;;;;;;;;;;;;;;13.29;40.49;99411.88;4856522;29;20266;-68
2022/01/17 09:52:46;;;;;;;;;;;;;;;13.31;40.71;99406.69;4856734;29;19976;-68
2022/01/17 09:55:14;;;;;;;;;;;;;;;13.25;40.43;99397.00;4856657;29;20321;-68
2022/01/17 09:57:45;;;;;;;;;;;;;;;13.20;40.74;99385.31;4857628;29;19979;-68
2022/01/17 10:00:13;;;;;;;;;;;;;;;13.13;41.10;99397.31;4852567;29;19955;-68
2022/01/17 10:02:41;;;;;;;;;;;;;;;13.20;42.39;99414.22;4846164;29;19954;-69
2022/01/17 10:05:10;;;;;;;;;;;;;;;13.28;42.34;99409.47;4856563;29;20232;-68
2022/01/17 10:07:53;;;;;;;;;;;;;;;13.33;42.10;99409.09;4852363;29;19961;-68
2022/01/17 10:10:32;;;;;;;;;;;;;;;13.48;43.00;99391.16;4854307;29;19973;-68
2022/01/17 10:13:04;;;;;;;;;;;;;;;13.65;41.63;99394.06;4853157;29;19964;-68
2022/01/17 10:15:44;;;;;;;;;;;;;;;13.83;40.83;99386.56;4849684;29;19952;-68
2022/01/17 10:18:25;;;;;;;;;;;;;;;13.84;42.65;99387.34;4852618;29;19951;-68
2022/01/17 10:20:58;;;;;;;;;;;;;;;13.98;40.61;99381.81;4847259;29;19948;-68
2022/01/17 10:26:54;;;;;;;;;;;;;;;13.91;39.88;99381.78;4862250;29;19956;-68
2022/01/17 10:34:54;;;;;;;;;;;;;;;14.03;39.30;99398.31;4860966;29;20036;-68
2022/01/17 10:37:26;;;;;;;;;;;;;;;14.02;39.33;99393.88;4848161;29;19955;-68
2022/01/17 10:40:07;;;;;;;;;;;;;;;13.92;38.01;99391.00;4855583;29;19962;-68
2022/01/17 10:42:41;;;;;;;;;;;;;;;14.02;38.34;99381.81;4853865;29;19963;-68
2022/01/17 10:45:11;;;;;;;;;;;;;;;14.07;38.93;99379.44;4860386;29;20545;-68
2022/01/17 10:47:43;;;;;;;;;;;;;;;14.11;40.42;99377.44;4860827;29;19954;-68
2022/01/17 10:50:12;;;;;;;;;;;;;;;14.22;41.44;99372.69;4862054;29;19981;-68
2022/01/17 10:52:44;;;;;;;;;;;;;;;14.24;43.48;99369.47;4861569;29;20218;-68
2022/01/17 10:55:14;;;;;;;;;;;;;;;14.11;43.74;99366.19;4861926;29;20370;-68
2022/01/17 10:57:43;;;;;;;;;;;;;;;14.29;43.87;99372.72;4853182;29;20577;-68
2022/01/17 11:00:13;;;;;;;;;;;;;;;14.28;44.01;99378.75;4855527;29;20391;-68
2022/01/17 11:02:42;;;;;;;;;;;;;;;14.26;43.69;99370.69;4852684;29;19954;-68
2022/01/17 11:05:14;;;;;;;;;;;;;;;14.27;43.28;99379.94;4849534;29;19957;-68
2022/01/17 11:07:42;;;;;;;;;;;;;;;14.28;43.38;99378.75;4853688;29;19962;-69
2022/01/17 11:10:17;;;;;;;;;;;;;;;14.20;42.76;99380.72;4855496;29;19973;-68
2022/01/17 11:12:45;;;;;;;;;;;;;;;14.31;42.13;99367.50;4856506;29;19968;-68
2022/01/17 11:15:13;;;;;;;;;;;;;;;14.16;42.01;99360.19;4844988;29;19956;-68
2022/01/17 11:17:48;;;;;;;;;;;;;;;14.26;42.16;99367.06;4851142;29;20249;-68
2022/01/17 11:20:16;;;;;;;;;;;;;;;14.37;41.85;99359.50;4853479;29;19954;-69
2022/01/17 11:22:45;;;;;;;;;;;;;;;14.38;40.83;99358.28;4855126;29;21233;-68
2022/01/17 11:25:23;;;;;;;;;;;;;;;14.41;40.36;99343.41;4854195;29;19948;-68
2022/01/17 11:27:51;;;;;;;;;;;;;;;14.36;36.40;99336.19;4856612;29;19961;-68
2022/01/17 11:30:19;;;;;;;;;;;;;;;14.38;36.45;99330.16;4857044;29;19974;-68
2022/01/17 11:32:47;;;;;;;;;;;;;;;14.42;36.38;99325.34;4856017;29;19973;-69
2022/01/17 11:35:16;;;;;;;;;;;;;;;14.38;37.47;99316.06;4859748;29;19957;-68
2022/01/17 11:37:46;;;;;;;;;;;;;;;14.28;38.26;99314.81;4861133;29;19947;-68
2022/01/17 11:40:14;;;;;;;;;;;;;;;14.23;39.36;99332.09;4860960;29;19947;-68
2022/01/17 11:42:45;;;;;;;;;;;;;;;14.23;40.54;99359.44;4860762;29;20010;-68
2022/01/17 11:45:22;;;;;;;;;;;;;;;14.26;41.46;99367.88;4861183;29;19959;-68
2022/01/17 11:47:56;;;;;;;;;;;;;;;14.26;41.29;99365.06;4864636;29;19952;-68
2022/01/17 11:50:34;;;;;;;;;;;;;;;14.30;41.53;99342.56;4864483;29;19974;-68
2022/01/17 11:53:10;;;;;;;;;;;;;;;14.33;44.74;99341.78;4864231;29;20410;-68
2022/01/17 11:55:38;;;;;;;;;;;;;;;14.37;45.26;99349.06;4864059;29;19963;-68
2022/01/17 11:58:21;;;;;;;;;;;;;;;14.41;44.01;99360.31;4864255;29;19953;-68
2022/01/17 12:00:51;;;;;;;;;;;;;;;14.33;44.43;99353.03;4864276;29;19952;-68
2022/01/17 12:03:20;;;;;;;;;;;;;;;14.33;43.70;99316.47;4862019;29;19951;-68
2022/01/17 12:05:47;;;;;;;;;;;;;;;14.38;43.26;99304.81;4859234;29;20259;-68
2022/01/17 12:08:19;;;;;;;;;;;;;;;14.38;43.48;99316.06;4859935;29;19955;-68
2022/01/17 12:10:57;;;;;;;;;;;;;;;14.33;43.04;99313.66;4859208;29;20353;-68
2022/01/17 12:13:40;;;;;;;;;;;;;;;14.01;42.51;99298.69;4858893;29;20242;-69
2022/01/17 12:16:19;;;;;;;;;;;;;;;14.07;43.26;99299.88;4857887;29;19965;-68
2022/01/17 12:19:05;;;;;;;;;;;;;;;13.94;45.23;99302.25;4855553;29;19948;-68
2022/01/17 12:21:32;;;;;;;;;;;;;;;13.86;48.71;99291.38;4858342;29;19958;-68
2022/01/17 12:24:15;;;;;;;;;;;;;;;13.76;52.13;99290.16;4858437;29;19963;-68
2022/01/17 12:27:03;;;;;;;;;;;;;;;13.73;52.42;99283.31;4857982;29;19962;-68
2022/01/17 12:29:37;;;;;;;;;;;;;;;13.73;52.44;99288.13;4857308;29;19949;-68
2022/01/17 12:32:05;;;;;;;;;;;;;;;13.75;52.07;99278.09;4855940;29;20208;-68
2022/01/17 12:34:42;;;;;;;;;;;;;;;13.64;52.29;99288.50;4849879;29;19957;-67
2022/01/17 12:37:28;;;;;;;;;;;;;;;13.65;53.40;99273.22;4850473;29;20366;-68
2022/01/17 12:40:19;;;;;;;;;;;;;;;13.54;53.91;99271.56;4854640;29;19955;-67
2022/01/17 12:42:49;;;;;;;;;;;;;;;13.44;55.03;99270.31;4835132;29;20011;-68
2022/01/17 12:45:17;;;;;;;;;;;;;;;13.38;57.76;99257.03;4852262;29;19949;-67
2022/01/17 12:47:45;;;;;;;;;;;;;;;13.37;58.22;99242.19;4838628;29;19960;-67
2022/01/17 12:50:13;;;;;;;;;;;;;;;13.35;54.48;99229.75;4854977;29;19969;-67
2022/01/17 12:52:40;;;;;;;;;;;;;;;13.33;54.81;99249.78;4849395;29;19954;-67
2022/01/17 12:55:08;;;;;;;;;;;;;;;13.25;54.37;99252.94;4852498;29;19950;-67
2022/01/17 12:57:40;;;;;;;;;;;;;;;13.24;55.15;99252.16;4851778;29;19957;-67
2022/01/17 13:00:28;;;;;;;;;;;;;;;13.30;55.95;99246.97;4851595;29;19956;-67
2022/01/17 13:02:56;;;;;;;;;;;;;;;13.28;57.15;99247.34;4850658;29;20351;-67
2022/01/17 13:05:25;;;;;;;;;;;;;;;13.29;58.66;99234.91;4852408;29;20247;-67
2022/01/17 13:07:52;;;;;;;;;;;;;;;13.17;54.07;99232.44;4850135;29;19952;-67
2022/01/17 13:10:20;;;;;;;;;;;;;;;13.24;54.98;99226.06;4854393;29;19971;-67
2022/01/17 13:12:48;;;;;;;;;;;;;;;13.25;55.69;99202.41;4849198;29;19951;-67
2022/01/17 13:15:16;;;;;;;;;;;;;;;13.19;55.40;99193.53;4850845;29;19963;-67
2022/01/17 13:17:43;;;;;;;;;;;;;;;13.23;56.01;99202.00;4856726;29;21061;-67
2022/01/17 13:20:10;;;;;;;;;;;;;;;13.20;55.22;99214.81;4857350;29;19947;-67
2022/01/17 13:22:51;;;;;;;;;;;;;;;13.10;60.45;99212.75;4847988;29;19955;-69
2022/01/17 13:25:19;;;;;;;;;;;;;;;13.02;61.06;99222.28;4849870;29;20364;-67
2022/01/17 13:27:49;;;;;;;;;;;;;;;13.00;61.29;99199.41;4855452;29;19964;-67
2022/01/17 13:30:17;;;;;;;;;;;;;;;13.01;57.69;99186.97;4854196;29;19948;-67
2022/01/17 13:32:45;;;;;;;;;;;;;;;12.99;57.52;99178.94;4849422;29;19984;-67
2022/01/17 13:35:14;;;;;;;;;;;;;;;12.86;51.98;99169.25;4851730;29;19951;-67
2022/01/17 13:38:04;;;;;;;;;;;;;;;12.77;51.65;99159.56;4855369;29;20329;-67
2022/01/17 13:40:33;;;;;;;;;;;;;;;12.68;50.28;99161.91;4850652;29;19957;-68
2022/01/17 13:43:02;;;;;;;;;;;;;;;12.69;54.35;99149.50;4849563;29;19949;-68
2022/01/17 13:45:32;;;;;;;;;;;;;;;12.63;57.40;99135.03;4853490;29;19964;-68
2022/01/17 13:48:00;;;;;;;;;;;;;;;12.60;58.49;99149.84;4854629;29;19963;-67
2022/01/17 13:50:29;;;;;;;;;;;;;;;12.57;59.52;99136.59;4849868;29;19974;-68
2022/01/17 13:52:57;;;;;;;;;;;;;;;12.49;57.94;99134.94;4848652;29;19953;-67
2022/01/17 13:55:50;;;;;;;;;;;;;;;12.48;59.55;99136.94;4848968;29;19955;-68
2022/01/17 13:58:19;;;;;;;;;;;;;;;12.48;61.90;99136.94;4845402;29;19964;-68
2022/01/17 14:00:50;;;;;;;;;;;;;;;12.43;62.00;99133.69;4852943;29;19957;-68
2022/01/17 14:03:21;;;;;;;;;;;;;;;12.37;63.38;99124.06;4848573;29;19961;-68
2022/01/17 14:05:50;;;;;;;;;;;;;;;12.31;60.23;99129.22;4849577;29;19968;-67
2022/01/17 14:08:21;;;;;;;;;;;;;;;12.29;61.85;99139.19;4853625;29;20330;-67
2022/01/17 14:10:58;;;;;;;;;;;;;;;12.19;59.93;99149.16;4851616;29;19975;-67
2022/01/17 14:13:30;;;;;;;;;;;;;;;12.16;59.83;99143.50;4853339;29;19950;-67
2022/01/17 14:16:20;;;;;;;;;;;;;;;12.12;56.00;99140.69;4850182;29;19974;-67
2022/01/17 14:19:04;;;;;;;;;;;;;;;12.09;51.90;99132.22;4847131;29;19983;-67
2022/01/17 14:21:59;;;;;;;;;;;;;;;12.07;49.93;99137.41;4844062;29;20338;-67
2022/01/17 14:24:34;;;;;;;;;;;;;;;12.05;49.95;99149.03;4852450;29;19955;-67
2022/01/17 14:27:08;;;;;;;;;;;;;;;11.99;50.00;99147.75;4851356;29;19956;-67
2022/01/17 14:29:37;;;;;;;;;;;;;;;11.97;48.57;99140.94;4852086;29;19955;-67
2022/01/17 14:32:05;;;;;;;;;;;;;;;11.95;47.69;99144.13;4852369;29;19978;-67
2022/01/17 14:34:34;;;;;;;;;;;;;;;11.93;47.49;99149.31;4836947;29;20899;-67
2022/01/17 14:37:01;;;;;;;;;;;;;;;11.91;49.35;99151.69;4837016;29;20231;-67
2022/01/17 14:40:02;;;;;;;;;;;;;;;11.82;57.66;99131.59;4837124;29;19947;-67
2022/01/17 14:42:39;;;;;;;;;;;;;;;11.76;65.55;99131.13;4837534;29;19982;-67
2022/01/17 14:45:09;;;;;;;;;;;;;;;11.71;66.26;99139.09;4837198;29;20250;-67
2022/01/17 14:47:38;;;;;;;;;;;;;;;11.61;68.63;99125.75;4836524;29;19951;-67
2022/01/17 14:50:07;;;;;;;;;;;;;;;11.52;70.48;99140.06;4836784;29;20365;-67
2022/01/17 14:52:38;;;;;;;;;;;;;;;11.46;69.81;99138.00;4837042;29;20399;-67
2022/01/17 14:59:27;;;;;;;;;;;;;;;11.42;69.67;99131.56;4835417;29;19957;-67
2022/01/17 15:00:55;;;;;;;;;;;;;;;11.36;65.12;99138.66;4836344;29;19956;-67
2022/01/17 15:03:29;;;;;;;;;;;;;;;11.31;67.55;99139.81;4836220;29;19957;-67
2022/01/17 15:05:56;;;;;;;;;;;;;;;11.23;69.70;99130.53;4837527;29;20237;-67
2022/01/17 15:08:24;;;;;;;;;;;;;;;11.20;68.60;99122.88;4837349;29;19962;-67
2022/01/17 15:10:51;;;;;;;;;;;;;;;11.16;65.68;99113.66;4836225;29;19988;-67
2022/01/17 15:13:19;;;;;;;;;;;;;;;11.11;65.33;99111.19;4835165;29;19957;-67
2022/01/17 15:15:46;;;;;;;;;;;;;;;11.07;64.06;99101.97;4837907;29;19976;-67
2022/01/17 15:18:15;;;;;;;;;;;;;;;11.05;62.85;99106.31;4836473;29;20318;-67
2022/01/17 15:20:46;;;;;;;;;;;;;;;10.97;64.22;99097.03;4840288;29;19949;-67
2022/01/17 15:23:14;;;;;;;;;;;;;;;10.94;63.31;99106.19;4840567;29;19955;-67
2022/01/17 15:25:41;;;;;;;;;;;;;;;10.89;64.53;99102.91;4841744;29;19950;-67
2022/01/17 15:28:09;;;;;;;;;;;;;;;10.73;69.82;99093.91;4841305;29;19950;-67
2022/01/17 15:30:37;;;;;;;;;;;;;;;10.70;69.55;99089.06;4837455;29;19961;-67
2022/01/17 15:33:08;;;;;;;;;;;;;;;10.53;71.08;99085.66;4843295;29;19981;-67
2022/01/17 15:35:36;;;;;;;;;;;;;;;10.36;74.72;99088.22;4856030;29;19956;-67
2022/01/17 15:38:04;;;;;;;;;;;;;;;10.15;74.83;99087.91;4851893;29;19963;-67
2022/01/17 15:40:31;;;;;;;;;;;;;;;10.07;72.87;99069.38;4859901;29;19962;-67
2022/01/17 15:42:59;;;;;;;;;;;;;;;9.95;74.97;99067.59;4857452;29;19963;-67
2022/01/17 15:45:28;;;;;;;;;;;;;;;9.84;74.88;99067.41;4857450;29;20028;-67
2022/01/17 15:47:55;;;;;;;;;;;;;;;9.75;74.24;99066.06;4854077;29;19955;-67
2022/01/17 15:50:23;;;;;;;;;;;;;;;9.66;75.03;99055.13;4852240;29;19949;-67
2022/01/17 15:52:50;;;;;;;;;;;;;;;9.62;75.64;99054.28;4858521;29;20002;-66
2022/01/17 15:55:18;;;;;;;;;;;;;;;9.58;75.45;99059.00;4854942;29;19950;-67
2022/01/17 15:57:45;;;;;;;;;;;;;;;9.56;74.68;99058.56;4856703;29;20495;-67
2022/01/17 16:00:14;;;;;;;;;;;;;;;9.50;75.51;99048.88;4837345;29;19962;-67
2022/01/17 16:02:42;;;;;;;;;;;;;;;9.49;74.77;99044.47;4845801;29;19955;-67
2022/01/17 16:05:12;;;;;;;;;;;;;;;9.50;69.99;99048.88;4851177;29;19958;-67
2022/01/17 16:07:39;;;;;;;;;;;;;;;9.55;68.04;99039.41;4853186;29;19956;-67
2022/01/17 16:10:07;;;;;;;;;;;;;;;9.60;66.40;99041.88;4853261;29;19967;-67
2022/01/17 16:12:39;;;;;;;;;;;;;;;9.56;69.88;99041.81;4854994;29;19971;-66
2022/01/17 16:15:07;;;;;;;;;;;;;;;9.54;68.40;99038.56;4854746;29;19962;-67
2022/01/17 16:17:34;;;;;;;;;;;;;;;9.46;69.75;99036.88;4856511;29;20919;-67
2022/01/17 16:20:02;;;;;;;;;;;;;;;9.47;65.44;99044.03;4854565;29;19978;-67
2022/01/17 16:22:31;;;;;;;;;;;;;;;9.47;65.75;99040.44;4857407;29;20398;-67
2022/01/17 16:24:59;;;;;;;;;;;;;;;9.37;66.48;99038.28;4857739;29;19958;-67
2022/01/17 16:27:26;;;;;;;;;;;;;;;9.35;64.47;99035.03;4858214;29;19959;-66
2022/01/17 16:29:54;;;;;;;;;;;;;;;9.40;59.19;99034.75;4855097;29;20266;-67
2022/01/17 16:32:22;;;;;;;;;;;;;;;9.49;53.70;99029.69;4857227;29;20005;-67
2022/01/17 16:34:49;;;;;;;;;;;;;;;9.59;51.64;99029.09;4855626;29;19953;-67
2022/01/17 16:37:19;;;;;;;;;;;;;;;9.62;50.41;99025.56;4858577;29;19956;-66
2022/01/17 16:39:46;;;;;;;;;;;;;;;9.69;47.77;99025.66;4854393;29;19954;-66
2022/01/17 16:42:14;;;;;;;;;;;;;;;9.71;45.99;99024.09;4848216;29;19955;-67
2022/01/17 16:44:42;;;;;;;;;;;;;;;9.77;47.21;99021.81;4856736;29;20326;-67
2022/01/17 16:47:10;;;;;;;;;;;;;;;9.72;46.67;99025.72;4858191;29;19956;-67
2022/01/17 16:49:38;;;;;;;;;;;;;;;9.74;44.46;99022.56;4856838;29;20361;-67
2022/01/17 16:52:05;;;;;;;;;;;;;;;9.79;43.46;99023.03;4858357;29;19981;-67
2022/01/17 16:54:33;;;;;;;;;;;;;;;9.76;44.25;99025.78;4857759;29;19975;-67
2022/01/17 16:57:00;;;;;;;;;;;;;;;9.77;43.95;99027.41;4853923;29;19958;-67
2022/01/17 16:59:28;;;;;;;;;;;;;;;9.72;44.30;99034.09;4857746;29;19959;-67
2022/01/17 17:01:56;;;;;;;;;;;;;;;9.70;44.76;99019.72;4858712;29;20323;-66
2022/01/17 17:04:24;;;;;;;;;;;;;;;9.68;42.75;99013.69;4854284;29;20373;-67
2022/01/17 17:06:51;;;;;;;;;;;;;;;9.67;41.80;99017.66;4857839;29;19963;-66
2022/01/17 17:09:21;;;;;;;;;;;;;;;9.69;41.64;99014.50;4856533;29;19949;-67
2022/01/17 17:11:49;;;;;;;;;;;;;;;9.70;38.96;99024.50;4857025;29;19963;-67
2022/01/17 17:14:16;;;;;;;;;;;;;;;9.69;39.68;99022.88;4856518;29;19959;-66
2022/01/17 17:16:44;;;;;;;;;;;;;;;9.72;38.93;99017.34;4857043;29;19959;-67
2022/01/17 17:19:11;;;;;;;;;;;;;;;9.77;37.07;99025.41;4857550;29;19953;-66
2022/01/17 17:21:39;;;;;;;;;;;;;;;9.79;37.53;99034.22;4856910;29;19961;-67
2022/01/17 17:24:10;;;;;;;;;;;;;;;9.81;37.44;99039.41;4841533;29;20332;-67
2022/01/17 17:26:41;;;;;;;;;;;;;;;9.83;38.63;99039.84;4856772;29;19956;-67
2022/01/17 17:29:09;;;;;;;;;;;;;;;9.82;38.31;99039.06;4850830;29;20037;-66
2022/01/17 17:31:37;;;;;;;;;;;;;;;9.78;38.92;99040.19;4856487;29;20042;-66
2022/01/17 17:34:05;;;;;;;;;;;;;;;9.78;36.95;99035.38;4843246;29;20003;-66
2022/01/17 17:36:33;;;;;;;;;;;;;;;9.79;38.27;99042.59;4848226;29;19955;-67
2022/01/17 17:39:01;;;;;;;;;;;;;;;9.78;37.29;99040.97;4848554;29;19962;-66
2022/01/17 17:41:29;;;;;;;;;;;;;;;9.79;38.70;99039.81;4845401;29;20502;-67
2022/01/17 17:43:57;;;;;;;;;;;;;;;9.82;37.35;99058.63;4845104;29;19953;-66
2022/01/17 17:46:25;;;;;;;;;;;;;;;9.76;37.62;99054.50;4846943;29;20347;-66
2022/01/17 17:48:52;;;;;;;;;;;;;;;9.84;37.19;99047.88;4848110;29;19957;-67
2022/01/17 17:51:19;;;;;;;;;;;;;;;9.76;37.23;99062.88;4851894;29;20415;-67
2022/01/17 17:53:47;;;;;;;;;;;;;;;9.74;36.78;99058.84;4851649;29;19974;-67
2022/01/17 17:56:15;;;;;;;;;;;;;;;9.73;36.74;99055.25;4845165;29;20839;-67
2022/01/17 17:58:43;;;;;;;;;;;;;;;9.71;37.03;99063.19;4843428;29;20048;-67
2022/01/17 18:01:10;;;;;;;;;;;;;;;9.69;37.61;99065.56;4840222;29;19961;-67
2022/01/17 18:03:42;;;;;;;;;;;;;;;9.70;38.14;99067.19;4842147;29;19951;-67
2022/01/17 18:06:10;;;;;;;;;;;;;;;9.65;38.45;99063.91;4840586;29;19963;-67
2022/01/17 18:08:37;;;;;;;;;;;;;;;9.69;36.86;99059.97;4837489;29;20971;-67
2022/01/17 18:11:05;;;;;;;;;;;;;;;9.77;38.49;99067.31;4849971;29;20355;-67
2022/01/17 18:13:32;;;;;;;;;;;;;;;9.66;38.49;99066.31;4844864;29;20370;-67
2022/01/17 18:16:00;;;;;;;;;;;;;;;9.60;38.07;99065.03;4835679;29;19966;-66
2022/01/17 18:18:28;;;;;;;;;;;;;;;9.54;38.71;99068.47;4837778;29;19965;-66
2022/01/17 18:20:56;;;;;;;;;;;;;;;9.49;39.51;99068.78;4839081;29;19957;-67
2022/01/17 18:23:23;;;;;;;;;;;;;;;9.48;39.52;99064.41;4832788;29;19953;-66
2022/01/17 18:25:53;;;;;;;;;;;;;;;9.46;38.65;99070.38;4835916;29;19959;-66
2022/01/17 18:28:20;;;;;;;;;;;;;;;9.45;38.97;99067.94;4840953;29;19954;-66
2022/01/17 18:30:48;;;;;;;;;;;;;;;9.45;38.50;99062.34;4836946;29;19956;-67
2022/01/17 18:33:19;;;;;;;;;;;;;;;9.44;38.20;99060.75;4840743;29;19980;-67
2022/01/17 18:35:46;;;;;;;;;;;;;;;9.48;38.95;99061.59;4842283;29;19952;-67
2022/01/17 18:38:14;;;;;;;;;;;;;;;9.39;39.08;99056.25;4837125;29;20340;-67
2022/01/17 18:40:41;;;;;;;;;;;;;;;9.34;38.40;99056.56;4840269;29;20227;-66
2022/01/17 18:43:09;;;;;;;;;;;;;;;9.33;38.10;99043.00;4835456;29;19952;-66
2022/01/17 18:45:36;;;;;;;;;;;;;;;9.30;38.32;99040.94;4844517;29;19957;-67
2022/01/17 18:48:04;;;;;;;;;;;;;;;9.27;38.40;99037.72;4853983;29;19959;-67